createdAt,value
2023-04-16T00:03:14.269Z,1.18
2023-04-16T00:08:29.233Z,1
2023-04-16T00:45:36.865Z,1.16
2023-04-16T00:50:46.522Z,1.23
2023-04-16T00:56:02.819Z,1.27
2023-04-16T01:01:17.573Z,1.28
2023-04-16T01:06:33.947Z,1.31
2023-04-16T01:11:50.357Z,1.15
2023-04-16T01:17:07.821Z,1.28
2023-04-16T01:22:24.782Z,1.08
2023-04-16T01:27:42.341Z,1.25
2023-04-16T01:32:57.755Z,1.26
2023-04-16T01:38:14.170Z,1.27
2023-04-16T01:43:31.413Z,1.21
2023-04-16T01:48:47.330Z,1.24
2023-04-16T01:54:03.183Z,1.16
2023-04-16T01:59:19.173Z,1.1
2023-04-16T02:04:36.019Z,1.19
2023-04-16T02:09:52.920Z,0.89
2023-04-16T02:15:10.588Z,1.16
2023-04-16T02:20:27.585Z,1.16
2023-04-16T02:25:44.548Z,1.13
2023-04-16T02:31:01.096Z,1.16
2023-04-16T02:36:18.110Z,1.17
2023-04-16T02:41:34.063Z,1.29
2023-04-16T02:46:50.434Z,1.24
2023-04-16T02:52:06.365Z,1.25
2023-04-16T02:57:22.833Z,1.17
2023-04-16T03:02:39.883Z,1.26
2023-04-16T03:07:55.611Z,1.26
2023-04-16T03:13:09.228Z,1.35
2023-04-16T03:18:25.228Z,1.3
2023-04-16T03:23:41.572Z,1.26
2023-04-16T03:28:58.578Z,1.27
2023-04-16T03:34:14.743Z,1.39
2023-04-16T03:39:30.755Z,1.25
2023-04-16T03:44:47.445Z,1.37
2023-04-16T03:50:04.506Z,1.41
2023-04-16T04:22:06.959Z,1.46
2023-04-16T04:27:16.666Z,1.46
2023-04-16T04:32:33.011Z,1.48
2023-04-16T04:37:49.583Z,1.72
2023-04-16T04:43:05.713Z,1.33
2023-04-16T04:48:22.690Z,1.68
2023-04-16T04:53:39.504Z,1.58
2023-04-16T04:58:55.308Z,1.63
2023-04-16T05:04:11.813Z,1.43
2023-04-16T05:09:27.785Z,1.76
2023-04-16T05:14:45.233Z,1.64
2023-04-16T05:20:02.895Z,1.75
2023-04-16T05:25:18.686Z,1.65
2023-04-16T05:30:35.314Z,1.49
2023-04-16T05:35:51.544Z,1.59
2023-04-16T05:41:08.098Z,1.48
2023-04-16T05:46:24.304Z,1.65
2023-04-16T05:51:41.684Z,1.49
2023-04-16T05:56:59.054Z,1.68
2023-04-16T06:02:15.756Z,1.61
2023-04-16T06:07:32.708Z,1.68
2023-04-16T06:12:48.211Z,1.74
2023-04-16T06:18:05.215Z,1.63
2023-04-16T06:23:21.717Z,1.62
2023-04-16T06:28:37.855Z,1.49
2023-04-16T06:33:53.890Z,1.6
2023-04-16T06:39:10.860Z,1.7
2023-04-16T06:44:25.686Z,1.37
2023-04-16T06:49:43.730Z,1.71
2023-04-16T06:55:00.604Z,1.73
2023-04-16T07:00:16.130Z,1.6
2023-04-16T07:05:32.132Z,1.68
2023-04-16T07:10:49.174Z,1.5
2023-04-16T07:16:06.921Z,1.7
2023-04-16T07:21:23.613Z,1.74
2023-04-16T07:26:38.794Z,1.46
2023-04-16T08:03:43.446Z,1.67
2023-04-16T08:08:52.024Z,1.64
2023-04-16T08:14:08.201Z,1.49
2023-04-16T08:19:25.629Z,1.7
2023-04-16T08:24:42.440Z,1.47
2023-04-16T08:30:01.083Z,1.6
2023-04-16T08:35:17.057Z,1.74
2023-04-16T08:40:32.872Z,1.58
2023-04-16T08:45:51.147Z,1.79
2023-04-16T08:51:07.726Z,1.6
2023-04-16T08:56:24.432Z,1.66
2023-04-16T09:01:41.583Z,1.77
2023-04-16T09:06:58.730Z,1.48
2023-04-16T09:12:15.856Z,1.67
2023-04-16T09:17:32.689Z,1.7
2023-04-16T09:22:48.787Z,1.88
2023-04-16T09:28:04.327Z,1.72
2023-04-16T09:33:20.819Z,1.86
2023-04-16T09:38:37.400Z,1.73
2023-04-16T09:43:55.367Z,1.93
2023-04-16T09:49:11.980Z,1.81
2023-04-16T09:54:26.536Z,1.64
2023-04-16T09:59:42.911Z,1.69
2023-04-16T10:04:59.011Z,1.75
2023-04-16T10:10:14.360Z,1.79
2023-04-16T10:15:30.531Z,1.5
2023-04-16T10:20:47.577Z,1.61
2023-04-16T10:26:04.113Z,1.79
2023-04-16T10:31:21.549Z,1.61
2023-04-16T10:36:37.082Z,1.62
2023-04-16T10:41:53.875Z,1.38
2023-04-16T10:47:10.087Z,1.69
2023-04-16T10:52:27.074Z,1.66
2023-04-16T10:57:42.716Z,1.61
2023-04-16T11:02:59.326Z,1.77
2023-04-16T11:45:16.429Z,1.72
2023-04-16T11:50:25.740Z,1.76
2023-04-16T11:55:41.878Z,1.6
2023-04-16T12:06:15.226Z,1.53
2023-04-16T12:11:31.147Z,1.43
2023-04-16T12:16:47.327Z,1.51
2023-04-16T12:22:02.493Z,1.55
2023-04-16T12:27:19.225Z,1.51
2023-04-16T12:32:35.711Z,1.53
2023-04-16T13:14:55.721Z,1.32
2023-04-16T13:20:05.193Z,1.42
2023-04-16T13:25:21.265Z,1.55
2023-04-16T13:30:36.994Z,1.44
2023-04-16T13:35:54.119Z,1.44
2023-04-16T13:41:09.683Z,1.39
2023-04-16T13:46:26.572Z,1.48
2023-04-16T13:51:43.494Z,1.21
2023-04-16T13:57:00.335Z,1.38
2023-04-16T14:02:18.052Z,1.52
2023-04-16T14:07:34.034Z,1.39
2023-04-16T14:12:49.987Z,1.35
2023-04-16T14:18:05.792Z,1.56
2023-04-16T14:23:21.867Z,1.43
2023-04-16T14:28:37.874Z,1.49
2023-04-16T14:33:54.519Z,1.22
2023-04-16T14:39:12.798Z,1.42
2023-04-16T14:44:27.070Z,1.4
2023-04-16T14:49:43.795Z,1.43
2023-04-16T14:55:01.414Z,1.39
2023-04-16T15:00:17.476Z,1.36
2023-04-16T15:05:34.048Z,1.37
2023-04-16T15:10:51.851Z,1.34
2023-04-16T15:16:07.517Z,1.46
2023-04-16T15:21:24.287Z,1.36
2023-04-16T15:26:40.360Z,1.23
2023-04-16T15:31:57.951Z,1.29
2023-04-16T15:37:13.428Z,1.32
2023-04-16T15:42:30.191Z,1.31
2023-04-16T15:47:47.591Z,1.34
2023-04-16T15:53:04.151Z,1.26
2023-04-16T15:58:20.531Z,1.34
2023-04-16T16:03:37.206Z,1.19
2023-04-16T16:08:52.046Z,1.25
2023-04-16T16:14:07.468Z,1.14
2023-04-16T16:56:28.391Z,1.18
2023-04-16T17:01:38.325Z,1.2
2023-04-16T17:06:53.619Z,1.25
2023-04-16T17:12:10.490Z,1.33
2023-04-16T17:17:27.456Z,1.24
2023-04-16T17:22:42.115Z,1.25
2023-04-16T17:28:00.116Z,1.27
2023-04-16T17:33:17.804Z,1.19
2023-04-16T17:38:34.533Z,1.29
2023-04-16T17:43:50.278Z,1.4
2023-04-16T17:49:06.382Z,1.3
2023-04-16T17:54:23.596Z,1.32
2023-04-16T17:59:39.657Z,1.46
2023-04-16T18:04:56.189Z,1.39
2023-04-16T18:10:10.465Z,1.46
2023-04-16T18:15:27.031Z,1.37
2023-04-16T18:20:42.455Z,1.39
2023-04-16T18:26:00.189Z,1.37
2023-04-16T18:31:22.009Z,1.37
2023-04-16T18:36:34.818Z,1.39
2023-04-16T18:41:51.401Z,1.37
2023-04-16T18:47:06.675Z,1.37
2023-04-16T18:52:24.512Z,1.39
2023-04-16T18:57:41.966Z,1.42
2023-04-16T19:02:59.395Z,1.34
2023-04-16T19:08:14.837Z,1.45
2023-04-16T19:13:31.717Z,1.45
2023-04-16T19:18:48.914Z,1.5
2023-04-16T19:24:07.632Z,1.43
2023-04-16T19:29:24.117Z,1.57
2023-04-16T19:34:41.275Z,1.53
2023-04-16T19:39:57.079Z,1.53
2023-04-16T19:45:14.199Z,1.47
2023-04-16T19:50:31.438Z,1.53
2023-04-16T20:27:37.530Z,1.62
2023-04-16T20:32:46.800Z,1.58
2023-04-16T20:38:02.380Z,1.64
2023-04-16T20:43:19.247Z,1.39
2023-04-16T20:48:36.658Z,1.61
2023-04-16T20:53:57.087Z,1.62
2023-04-16T20:59:14.111Z,1.63
2023-04-16T21:04:30.002Z,1.76
2023-04-16T21:09:45.728Z,1.67
2023-04-16T21:15:01.290Z,1.68
2023-04-16T21:20:19.164Z,1.71
2023-04-16T21:25:35.327Z,1.73
2023-04-16T21:30:50.342Z,1.79
2023-04-16T21:36:07.368Z,1.79
2023-04-16T21:41:24.670Z,1.69
2023-04-16T21:46:42.573Z,1.78
2023-04-16T21:51:58.268Z,1.81
2023-04-16T21:57:15.021Z,1.9
2023-04-16T22:02:31.988Z,1.8
2023-04-16T22:07:48.262Z,1.76
2023-04-16T22:13:04.595Z,1.84
2023-04-16T22:18:21.631Z,1.82
2023-04-16T22:23:38.378Z,1.79
2023-04-16T22:28:55.632Z,1.76
2023-04-16T22:34:11.969Z,1.73
2023-04-16T22:39:28.896Z,1.68
2023-04-16T22:44:45.177Z,1.7
2023-04-16T22:50:01.168Z,1.79
2023-04-16T22:55:17.807Z,1.75
2023-04-16T23:00:34.276Z,1.64
2023-04-16T23:05:51.080Z,1.63
2023-04-16T23:11:08.042Z,1.68
2023-04-16T23:16:25.012Z,1.61
2023-04-16T23:21:41.483Z,1.74
2023-04-16T23:26:57.161Z,1.75
